Time;durP1;ratioP1;P1;durP2;ratioP2;P2;SDS_P1;SDS_P2;PMS_P1;PMS_P2;Temp;Humidity;BMP_temperature;BMP_pressure;BME280_temperature;BME280_humidity;BME280_pressure;Samples;Min_cycle;Max_cycle;Signal;HPM_P1;HPM_P2
2022/06/30 00:01:25;;;;;;;5.65;3.40;;;22.50;99.90;;;;;;5078886;28;20045;-70
2022/06/30 00:03:51;;;;;;;6.65;3.60;;;22.50;99.90;;;;;;5051925;28;20051;-70
2022/06/30 00:06:17;;;;;;;5.05;3.72;;;22.50;99.90;;;;;;5079811;28;20051;-73
2022/06/30 00:08:43;;;;;;;4.63;3.63;;;22.40;99.90;;;;;;5088595;28;20036;-72
2022/06/30 00:11:08;;;;;;;6.25;3.50;;;22.40;99.90;;;;;;5081128;28;20087;-72
2022/06/30 00:13:36;;;;;;;8.10;3.70;;;22.30;99.90;;;;;;5068071;28;20056;-70
2022/06/30 00:16:02;;;;;;;6.82;4.05;;;22.30;99.90;;;;;;5068160;28;20040;-69
2022/06/30 00:18:28;;;;;;;7.25;3.95;;;22.20;99.90;;;;;;5070944;28;20250;-72
2022/06/30 00:20:54;;;;;;;5.85;3.88;;;22.10;99.90;;;;;;5081960;28;20115;-72
2022/06/30 00:23:19;;;;;;;5.88;3.92;;;22.10;99.90;;;;;;5072113;28;20069;-70
2022/06/30 00:25:45;;;;;;;5.95;3.80;;;22.00;99.90;;;;;;5070150;28;20055;-70
2022/06/30 00:28:11;;;;;;;5.45;4.07;;;22.00;99.90;;;;;;5067488;28;20115;-70
2022/06/30 00:30:36;;;;;;;6.95;3.90;;;22.00;99.90;;;;;;5069453;28;20047;-70
2022/06/30 00:33:02;;;;;;;5.72;4.43;;;21.80;99.90;;;;;;5087440;28;20040;-70
2022/06/30 00:35:28;;;;;;;5.75;4.15;;;21.70;99.90;;;;;;5070759;28;20500;-70
2022/06/30 00:37:53;;;;;;;6.10;4.22;;;21.70;99.90;;;;;;5069520;28;20045;-70
2022/06/30 00:40:19;;;;;;;8.07;4.70;;;21.70;99.90;;;;;;5068366;28;20051;-70
2022/06/30 00:42:45;;;;;;;5.53;4.57;;;21.60;99.90;;;;;;5060628;28;20055;-70
2022/06/30 00:45:11;;;;;;;8.10;4.43;;;21.60;99.90;;;;;;5070508;28;20045;-70
2022/06/30 00:47:36;;;;;;;7.45;4.60;;;21.50;99.90;;;;;;5069768;28;20476;-70
2022/06/30 00:50:03;;;;;;;10.02;4.50;;;21.50;99.90;;;;;;5054633;28;20098;-70
2022/06/30 00:52:30;;;;;;;6.28;4.63;;;21.40;99.90;;;;;;5091154;28;20048;-70
2022/06/30 00:54:57;;;;;;;8.43;4.63;;;21.40;99.90;;;;;;5091469;28;20331;-71
2022/06/30 00:57:24;;;;;;;4.63;3.95;;;21.30;99.90;;;;;;5074889;28;20051;-70
2022/06/30 00:59:53;;;;;;;6.22;4.22;;;21.40;99.90;;;;;;5084282;28;20044;-70
2022/06/30 01:02:20;;;;;;;6.90;3.92;;;21.20;99.90;;;;;;5071079;28;20086;-70
2022/06/30 01:04:49;;;;;;;5.72;3.85;;;21.20;99.90;;;;;;5076516;28;20056;-70
2022/06/30 01:07:17;;;;;;;8.32;3.95;;;21.20;99.90;;;;;;5055565;28;20048;-71
2022/06/30 01:12:42;;;;;;;5.88;4.10;;;21.20;99.90;;;;;;5053153;28;20049;-70
2022/06/30 01:15:09;;;;;;;9.25;4.40;;;21.10;99.90;;;;;;5071248;28;20071;-70
2022/06/30 01:17:35;;;;;;;5.03;3.53;;;21.10;99.90;;;;;;5071149;28;20386;-70
2022/06/30 01:20:01;;;;;;;4.72;3.50;;;21.10;99.90;;;;;;5053119;28;20038;-70
2022/06/30 01:22:27;;;;;;;5.88;3.42;;;21.10;99.90;;;;;;5058762;28;20054;-71
2022/06/30 01:24:52;;;;;;;6.05;3.60;;;21.10;99.90;;;;;;5091941;28;20384;-70
2022/06/30 01:27:19;;;;;;;4.65;3.33;;;21.10;99.90;;;;;;5091353;28;20059;-70
2022/06/30 01:29:45;;;;;;;5.75;3.28;;;21.10;99.90;;;;;;5090884;28;20091;-70
2022/06/30 01:32:11;;;;;;;5.22;3.60;;;21.10;99.90;;;;;;5091527;28;20063;-70
2022/06/30 01:34:37;;;;;;;6.53;3.30;;;21.10;99.90;;;;;;5081593;28;20060;-71
2022/06/30 01:37:04;;;;;;;5.40;3.30;;;21.10;99.90;;;;;;5036095;28;20040;-70
2022/06/30 01:39:30;;;;;;;5.82;3.17;;;21.10;99.90;;;;;;5091373;28;20360;-70
2022/06/30 01:41:56;;;;;;;7.30;3.45;;;21.00;99.90;;;;;;5070817;28;20048;-69
2022/06/30 01:44:21;;;;;;;7.00;3.33;;;21.00;99.90;;;;;;5090947;28;20076;-70
2022/06/30 01:46:48;;;;;;;4.05;3.20;;;21.00;99.90;;;;;;5091197;28;20082;-70
2022/06/30 01:49:14;;;;;;;5.95;3.30;;;21.00;99.90;;;;;;5074886;28;20040;-69
2022/06/30 01:51:40;;;;;;;5.78;3.10;;;20.90;99.90;;;;;;5089398;28;20044;-70
2022/06/30 01:54:08;;;;;;;5.47;3.38;;;20.90;99.90;;;;;;5070029;28;20051;-70
2022/06/30 01:56:34;;;;;;;6.78;3.40;;;20.90;99.90;;;;;;5058718;28;20057;-69
2022/06/30 01:59:00;;;;;;;5.55;3.22;;;20.80;99.90;;;;;;5050325;28;20041;-70
2022/06/30 02:01:25;;;;;;;4.70;2.97;;;20.80;99.90;;;;;;5050830;28;20041;-70
2022/06/30 02:03:51;;;;;;;5.82;3.13;;;20.80;99.90;;;;;;5067685;28;20093;-70
2022/06/30 02:06:17;;;;;;;8.10;3.33;;;20.80;99.90;;;;;;5088511;28;20092;-70
2022/06/30 02:08:42;;;;;;;5.78;3.60;;;20.80;99.90;;;;;;5088877;28;20493;-70
2022/06/30 02:11:08;;;;;;;4.90;3.50;;;20.80;99.90;;;;;;5068952;28;20048;-70
2022/06/30 02:13:34;;;;;;;5.03;3.65;;;20.80;99.90;;;;;;5070123;28;20098;-70
2022/06/30 02:15:59;;;;;;;5.15;3.70;;;20.70;99.90;;;;;;5070414;28;20076;-70
2022/06/30 02:18:25;;;;;;;7.65;3.70;;;20.70;99.90;;;;;;5068659;28;20090;-70
2022/06/30 02:20:50;;;;;;;4.70;3.75;;;20.70;99.90;;;;;;5070015;28;20051;-70
2022/06/30 02:23:16;;;;;;;5.35;3.60;;;20.60;99.90;;;;;;5087300;28;20054;-70
2022/06/30 02:25:42;;;;;;;5.55;3.42;;;20.60;99.90;;;;;;5084892;28;20412;-70
2022/06/30 02:28:08;;;;;;;5.65;3.80;;;20.60;99.90;;;;;;5086075;28;20079;-70
2022/06/30 02:30:34;;;;;;;5.90;3.38;;;20.60;99.90;;;;;;5081760;28;20065;-70
2022/06/30 02:33:00;;;;;;;4.90;3.80;;;20.50;99.90;;;;;;5068553;28;20097;-70
2022/06/30 02:35:26;;;;;;;5.32;3.47;;;20.50;99.90;;;;;;5069451;28;20036;-70
2022/06/30 02:37:53;;;;;;;5.93;3.65;;;20.60;99.90;;;;;;5069905;28;20045;-70
2022/06/30 02:40:19;;;;;;;4.85;3.75;;;20.40;99.90;;;;;;5069839;28;20413;-70
2022/06/30 02:42:45;;;;;;;4.82;3.50;;;20.50;99.90;;;;;;5044722;28;20547;-70
2022/06/30 02:45:11;;;;;;;7.30;3.60;;;20.50;99.90;;;;;;5045763;28;20052;-70
2022/06/30 02:47:41;;;;;;;6.20;3.78;;;20.50;99.90;;;;;;5068160;28;20416;-71
2022/06/30 02:50:09;;;;;;;6.25;3.75;;;20.40;99.90;;;;;;5069672;28;20084;-70
2022/06/30 02:52:35;;;;;;;6.35;3.90;;;20.40;99.90;;;;;;5068697;28;20040;-70
2022/06/30 02:55:02;;;;;;;5.43;3.70;;;20.40;99.90;;;;;;5067931;28;20055;-70
2022/06/30 02:57:28;;;;;;;8.20;3.85;;;20.30;99.90;;;;;;5050242;28;20041;-70
2022/06/30 02:59:55;;;;;;;7.00;3.60;;;20.40;99.90;;;;;;5067599;28;20076;-70
2022/06/30 03:02:21;;;;;;;5.30;3.75;;;20.40;99.90;;;;;;5053040;28;20041;-70
2022/06/30 03:04:46;;;;;;;8.68;4.13;;;20.30;99.90;;;;;;5051631;28;20129;-71
2022/06/30 03:07:12;;;;;;;6.22;3.90;;;20.20;99.90;;;;;;5048252;28;20566;-70
2022/06/30 03:09:37;;;;;;;5.65;3.70;;;20.20;99.90;;;;;;5047143;28;20049;-71
2022/06/30 03:12:03;;;;;;;8.13;4.10;;;20.10;99.90;;;;;;5048224;28;20457;-71
2022/06/30 03:14:29;;;;;;;7.05;4.05;;;20.10;99.90;;;;;;5032278;28;20132;-70
2022/06/30 03:16:55;;;;;;;7.10;3.92;;;20.10;99.90;;;;;;5046715;28;20394;-70
2022/06/30 03:19:20;;;;;;;8.18;4.07;;;20.10;99.90;;;;;;5049166;28;20517;-70
2022/06/30 03:21:46;;;;;;;7.43;4.10;;;20.00;99.90;;;;;;5047489;28;20041;-71
2022/06/30 03:24:12;;;;;;;7.28;4.00;;;20.00;99.90;;;;;;5048977;28;20350;-71
2022/06/30 03:26:38;;;;;;;6.00;4.32;;;20.00;99.90;;;;;;5053359;28;20052;-70
2022/06/30 03:29:04;;;;;;;7.82;4.15;;;19.90;99.90;;;;;;5056240;28;20049;-71
2022/06/30 03:31:30;;;;;;;9.10;4.47;;;19.90;99.90;;;;;;5070349;28;20056;-70
2022/06/30 03:33:57;;;;;;;5.53;4.03;;;19.90;99.90;;;;;;5070107;28;20170;-70
2022/06/30 03:36:22;;;;;;;7.50;4.03;;;19.80;99.90;;;;;;5066835;28;20141;-69
2022/06/30 03:38:48;;;;;;;8.07;4.00;;;19.80;99.90;;;;;;5075168;28;20510;-69
2022/06/30 03:41:13;;;;;;;8.65;4.05;;;19.80;99.90;;;;;;5087896;28;20139;-70
2022/06/30 03:43:39;;;;;;;6.70;4.18;;;19.80;99.90;;;;;;5069960;28;20376;-70
2022/06/30 03:46:05;;;;;;;8.45;4.10;;;19.70;99.90;;;;;;5069767;28;20123;-70
2022/06/30 03:48:30;;;;;;;7.95;4.50;;;19.70;99.90;;;;;;5089199;28;20488;-70
2022/06/30 03:50:56;;;;;;;7.00;4.00;;;19.70;99.90;;;;;;5086579;28;20051;-71
2022/06/30 03:53:22;;;;;;;6.15;4.63;;;19.70;99.90;;;;;;5067424;28;20048;-70
2022/06/30 03:55:47;;;;;;;7.72;4.47;;;19.60;99.90;;;;;;5068208;28;20119;-70
2022/06/30 03:58:13;;;;;;;5.57;4.20;;;19.60;99.90;;;;;;5067907;28;20037;-69
2022/06/30 04:00:39;;;;;;;6.65;4.47;;;19.60;99.90;;;;;;5033423;28;20190;-69
2022/06/30 04:03:05;;;;;;;10.23;4.50;;;19.60;99.90;;;;;;5056143;28;20066;-69
2022/06/30 04:05:31;;;;;;;6.50;4.00;;;19.60;99.90;;;;;;5085995;28;20405;-69
2022/06/30 04:07:57;;;;;;;9.15;4.30;;;19.60;99.90;;;;;;5067681;28;20041;-69
2022/06/30 04:10:23;;;;;;;7.30;4.72;;;19.60;99.90;;;;;;5060462;28;20111;-69
2022/06/30 04:12:49;;;;;;;7.25;4.55;;;19.60;99.90;;;;;;5047167;28;20040;-70
2022/06/30 04:15:14;;;;;;;7.47;5.13;;;19.50;99.90;;;;;;5057757;28;20040;-70
2022/06/30 04:17:40;;;;;;;6.90;4.45;;;19.50;99.90;;;;;;5067920;28;20036;-70
2022/06/30 04:20:15;;;;;;;8.70;4.55;;;19.40;99.90;;;;;;5049291;28;20048;-70
2022/06/30 04:22:52;;;;;;;6.95;4.40;;;19.40;99.90;;;;;;5066385;28;20056;-70
2022/06/30 04:25:18;;;;;;;7.63;4.80;;;19.40;99.90;;;;;;5067214;28;20115;-70
2022/06/30 04:27:54;;;;;;;6.40;4.47;;;19.40;99.90;;;;;;5067634;28;20107;-70
2022/06/30 04:32:37;;;;;;;;;;;19.40;99.90;;;;;;5079758;28;20496;-70
2022/06/30 04:33:06;;;;;;;7.53;4.22;;;19.40;99.90;;;;;;5084468;28;19986;-70
2022/06/30 04:35:32;;;;;;;6.47;4.10;;;19.40;99.90;;;;;;5067493;28;20086;-70
2022/06/30 04:38:02;;;;;;;5.63;4.47;;;19.40;99.90;;;;;;5049469;28;20044;-71
2022/06/30 04:43:12;;;;;;;7.72;4.60;;;19.40;99.90;;;;;;5057862;28;20045;-70
2022/06/30 04:45:38;;;;;;;7.20;4.70;;;19.40;99.90;;;;;;5067442;28;20052;-70
2022/06/30 04:48:04;;;;;;;6.55;4.32;;;19.30;99.90;;;;;;5067173;28;20044;-71
2022/06/30 04:50:29;;;;;;;9.40;4.32;;;19.30;99.90;;;;;;5048340;28;20051;-71
2022/06/30 04:52:55;;;;;;;7.18;4.10;;;19.40;99.90;;;;;;5049020;28;20045;-71
2022/06/30 04:55:22;;;;;;;8.07;4.85;;;19.50;99.90;;;;;;5068556;28;20040;-70
2022/06/30 04:57:47;;;;;;;7.10;4.70;;;19.50;99.90;;;;;;5048818;28;20080;-70
2022/06/30 05:00:13;;;;;;;9.52;4.80;;;19.50;99.90;;;;;;5032274;28;20099;-71
2022/06/30 05:02:39;;;;;;;11.90;5.25;;;19.50;99.90;;;;;;5047383;28;20509;-71
2022/06/30 05:05:05;;;;;;;9.70;5.10;;;19.50;99.90;;;;;;5029760;28;20372;-70
2022/06/30 05:07:31;;;;;;;8.75;4.90;;;19.60;99.90;;;;;;5033719;28;20119;-70
2022/06/30 05:09:56;;;;;;;9.73;5.13;;;19.70;99.90;;;;;;5060814;28;20041;-70
2022/06/30 05:12:22;;;;;;;5.88;5.15;;;19.70;99.90;;;;;;5066930;28;20073;-71
2022/06/30 05:14:48;;;;;;;8.85;5.20;;;19.70;99.90;;;;;;5066537;28;20484;-70
2022/06/30 05:17:13;;;;;;;9.57;4.90;;;19.70;99.90;;;;;;5067362;28;20040;-70
2022/06/30 05:19:39;;;;;;;5.88;4.82;;;19.50;99.90;;;;;;5066925;28;20431;-70
2022/06/30 05:22:05;;;;;;;7.60;5.45;;;19.60;99.90;;;;;;5065451;28;20536;-71
2022/06/30 05:27:15;;;;;;;8.13;5.75;;;19.60;99.90;;;;;;5066948;28;20176;-70
2022/06/30 05:29:41;;;;;;;8.85;5.28;;;19.70;99.90;;;;;;5080547;28;20199;-70
2022/06/30 05:32:07;;;;;;;10.13;5.95;;;19.70;99.90;;;;;;5065974;28;20330;-70
2022/06/30 05:34:34;;;;;;;7.97;5.50;;;19.70;99.90;;;;;;5068593;28;20115;-70
2022/06/30 05:37:00;;;;;;;11.00;6.20;;;19.70;99.90;;;;;;5069226;28;20041;-71
2022/06/30 05:39:26;;;;;;;8.57;5.93;;;19.80;99.90;;;;;;5069895;28;20054;-70
2022/06/30 05:41:51;;;;;;;7.65;6.22;;;19.80;99.90;;;;;;5087940;28;20071;-72
2022/06/30 05:44:17;;;;;;;10.93;6.20;;;19.80;99.90;;;;;;5053578;28;20044;-70
2022/06/30 05:46:43;;;;;;;12.23;5.97;;;19.80;99.90;;;;;;5070480;28;20071;-70
2022/06/30 05:49:10;;;;;;;12.07;5.93;;;19.80;99.90;;;;;;5071676;28;20040;-70
2022/06/30 05:51:35;;;;;;;13.25;7.00;;;19.90;99.90;;;;;;5068607;28;20048;-72
2022/06/30 05:54:01;;;;;;;10.30;6.60;;;19.90;99.90;;;;;;5074113;28;20058;-70
2022/06/30 05:56:27;;;;;;;13.30;7.35;;;20.00;99.90;;;;;;5077503;28;20048;-73
2022/06/30 05:58:53;;;;;;;12.43;7.38;;;20.00;99.90;;;;;;5071219;28;20033;-70
2022/06/30 06:01:18;;;;;;;12.73;7.22;;;20.10;99.90;;;;;;5072611;28;20123;-68
2022/06/30 06:03:44;;;;;;;12.07;7.45;;;20.10;99.90;;;;;;5055599;28;20493;-68
2022/06/30 06:06:10;;;;;;;12.45;7.57;;;20.10;99.90;;;;;;5088620;28;20036;-69
2022/06/30 06:08:36;;;;;;;11.80;7.32;;;20.30;99.90;;;;;;5071571;28;20453;-69
2022/06/30 06:11:01;;;;;;;9.98;6.45;;;20.30;99.90;;;;;;5074400;28;20040;-70
2022/06/30 06:13:27;;;;;;;9.43;5.90;;;20.40;99.90;;;;;;5081301;28;20033;-70
2022/06/30 06:15:53;;;;;;;8.63;6.07;;;20.40;99.90;;;;;;5083515;28;20044;-70
2022/06/30 06:18:18;;;;;;;11.63;6.18;;;20.50;99.90;;;;;;5071859;28;20036;-70
2022/06/30 06:20:45;;;;;;;13.63;6.20;;;20.60;99.90;;;;;;5069908;28;20507;-70
2022/06/30 06:23:10;;;;;;;10.82;5.85;;;20.60;99.90;;;;;;5051400;28;20137;-69
2022/06/30 06:25:36;;;;;;;7.80;5.38;;;20.60;99.90;;;;;;5070597;28;20157;-70
2022/06/30 06:30:46;;;;;;;15.93;5.10;;;20.70;99.90;;;;;;5049467;28;20096;-70
2022/06/30 06:33:11;;;;;;;8.20;5.32;;;20.80;99.90;;;;;;5064407;28;20083;-70
2022/06/30 06:35:37;;;;;;;6.13;4.80;;;20.80;99.90;;;;;;5049406;28;20044;-70
2022/06/30 06:38:03;;;;;;;9.95;5.20;;;20.90;99.90;;;;;;5064650;28;20094;-70
2022/06/30 06:40:29;;;;;;;8.32;5.10;;;20.90;99.90;;;;;;5049410;28;20051;-70
2022/06/30 06:42:54;;;;;;;10.05;5.25;;;21.00;99.90;;;;;;5061714;28;20059;-70
2022/06/30 06:45:20;;;;;;;8.52;5.03;;;21.00;99.90;;;;;;5070634;28;20028;-70
2022/06/30 06:47:46;;;;;;;7.75;4.93;;;21.10;99.90;;;;;;5068868;28;20076;-70
2022/06/30 06:50:12;;;;;;;10.82;5.38;;;21.10;99.90;;;;;;5069008;28;20041;-72
2022/06/30 06:52:38;;;;;;;9.50;5.43;;;21.30;99.90;;;;;;5050077;28;20052;-69
2022/06/30 06:55:04;;;;;;;15.18;5.38;;;21.20;99.90;;;;;;5069632;28;20044;-69
2022/06/30 06:57:38;;;;;;;29.63;6.28;;;21.30;99.90;;;;;;5068421;28;20052;-69
2022/06/30 07:00:08;;;;;;;11.02;5.10;;;21.30;99.90;;;;;;5050491;28;20446;-71
2022/06/30 07:02:34;;;;;;;21.23;5.90;;;21.30;99.90;;;;;;5070954;28;20496;-69
2022/06/30 07:05:00;;;;;;;12.50;5.68;;;21.40;99.90;;;;;;5050650;28;20063;-69
2022/06/30 07:07:26;;;;;;;11.35;4.90;;;21.40;99.90;;;;;;5067101;28;20041;-69
2022/06/30 07:09:52;;;;;;;7.32;4.50;;;21.50;99.90;;;;;;5065869;28;20037;-69
2022/06/30 07:12:17;;;;;;;7.05;4.72;;;21.50;99.90;;;;;;5059407;28;20097;-69
2022/06/30 07:14:43;;;;;;;8.13;4.82;;;21.60;99.90;;;;;;5068098;28;20040;-70
2022/06/30 07:17:09;;;;;;;7.82;4.90;;;21.60;99.90;;;;;;5069177;28;20079;-70
2022/06/30 07:19:35;;;;;;;6.55;4.63;;;21.60;99.90;;;;;;5051000;28;20041;-69
2022/06/30 07:22:00;;;;;;;7.25;4.90;;;21.60;99.90;;;;;;5075235;28;20036;-69
2022/06/30 07:24:26;;;;;;;6.68;4.75;;;21.70;99.90;;;;;;5069182;28;20429;-70
2022/06/30 07:26:52;;;;;;;7.97;4.88;;;21.80;99.90;;;;;;5051159;28;20036;-70
2022/06/30 07:29:18;;;;;;;9.27;5.25;;;22.00;99.90;;;;;;5067572;28;20056;-70
2022/06/30 07:31:43;;;;;;;8.48;5.20;;;22.00;99.90;;;;;;5067753;28;20087;-70
2022/06/30 07:34:09;;;;;;;7.68;4.93;;;22.00;99.90;;;;;;5068470;28;20110;-70
2022/06/30 07:36:36;;;;;;;7.35;5.30;;;22.10;99.90;;;;;;5065748;28;20041;-70
2022/06/30 07:39:03;;;;;;;9.15;5.22;;;22.00;99.90;;;;;;5068292;28;20116;-70
2022/06/30 07:41:28;;;;;;;7.28;5.05;;;22.10;99.90;;;;;;5065403;28;20037;-70
2022/06/30 07:43:54;;;;;;;8.65;4.90;;;22.30;99.90;;;;;;5066999;28;20127;-76
2022/06/30 07:46:20;;;;;;;7.78;5.53;;;22.30;99.90;;;;;;5076187;28;20118;-75
2022/06/30 07:48:47;;;;;;;7.43;5.30;;;22.40;99.90;;;;;;5070570;28;20098;-75
2022/06/30 07:51:13;;;;;;;6.45;5.43;;;22.50;99.90;;;;;;5067396;28;20040;-75
2022/06/30 07:53:39;;;;;;;10.43;5.70;;;22.60;99.90;;;;;;5088308;28;20060;-70
2022/06/30 07:56:05;;;;;;;6.38;5.28;;;22.60;99.90;;;;;;5085001;28;20137;-76
2022/06/30 07:58:31;;;;;;;8.70;5.53;;;22.70;99.90;;;;;;5086692;28;20093;-76
2022/06/30 08:00:56;;;;;;;8.73;5.78;;;22.60;99.90;;;;;;5072105;28;20052;-76
2022/06/30 08:03:22;;;;;;;6.70;5.13;;;22.60;99.90;;;;;;5088388;28;20047;-76
2022/06/30 08:05:48;;;;;;;7.72;4.80;;;22.80;99.90;;;;;;5087976;28;20052;-77
2022/06/30 08:08:13;;;;;;;7.03;5.28;;;22.90;99.90;;;;;;5089135;28;20050;-76
2022/06/30 08:10:39;;;;;;;10.95;5.97;;;23.00;99.90;;;;;;5066785;28;20060;-77
2022/06/30 08:13:05;;;;;;;10.55;6.00;;;23.10;99.90;;;;;;5067475;28;20084;-76
2022/06/30 08:15:30;;;;;;;7.20;5.60;;;23.00;99.90;;;;;;5067828;28;20131;-77
2022/06/30 08:18:04;;;;;;;8.77;5.70;;;23.20;99.90;;;;;;5055635;28;20082;-77
2022/06/30 08:20:30;;;;;;;8.20;5.63;;;23.30;99.90;;;;;;5066903;28;20036;-78
2022/06/30 08:22:56;;;;;;;7.90;5.50;;;23.40;99.90;;;;;;5066780;28;20121;-77
2022/06/30 08:25:22;;;;;;;8.55;5.35;;;23.50;99.90;;;;;;5066884;28;20047;-77
2022/06/30 08:27:47;;;;;;;8.82;6.10;;;23.60;99.90;;;;;;5050959;28;20547;-77
2022/06/30 08:30:13;;;;;;;7.95;5.82;;;23.60;99.90;;;;;;5067111;28;20485;-76
2022/06/30 08:32:40;;;;;;;10.82;5.32;;;23.70;99.90;;;;;;5066715;28;20063;-76
2022/06/30 08:35:06;;;;;;;8.52;5.93;;;23.80;99.90;;;;;;5100287;28;20074;-77
2022/06/30 08:37:31;;;;;;;7.18;5.93;;;23.90;99.90;;;;;;5086428;28;20047;-76
2022/06/30 08:42:41;;;;;;;7.65;5.80;;;24.00;99.90;;;;;;5054588;28;20040;-76
2022/06/30 08:45:17;;;;;;;13.45;6.18;;;23.90;99.90;;;;;;5062227;28;20048;-76
2022/06/30 08:47:45;;;;;;;11.05;6.47;;;24.20;99.90;;;;;;5028851;28;20041;-76
2022/06/30 08:50:11;;;;;;;6.07;5.30;;;24.30;99.90;;;;;;5046938;28;20045;-77
2022/06/30 08:52:48;;;;;;;7.93;6.03;;;24.50;99.90;;;;;;5046359;28;20053;-76
2022/06/30 08:55:15;;;;;;;8.73;6.25;;;24.50;99.90;;;;;;5029712;28;20037;-76
2022/06/30 08:57:43;;;;;;;12.25;6.80;;;24.60;99.90;;;;;;5028823;28;20094;-77
2022/06/30 09:00:10;;;;;;;8.73;6.03;;;24.60;99.90;;;;;;5047271;28;20048;-77
2022/06/30 09:02:36;;;;;;;12.18;6.13;;;24.80;99.90;;;;;;5047276;28;20057;-76
2022/06/30 09:05:02;;;;;;;11.10;6.75;;;24.90;99.90;;;;;;5061822;28;20084;-76
2022/06/30 09:07:28;;;;;;;13.90;6.57;;;25.10;99.90;;;;;;5053891;28;20396;-76
2022/06/30 09:09:54;;;;;;;8.63;6.55;;;25.20;99.90;;;;;;5070447;28;20075;-76
2022/06/30 09:12:20;;;;;;;10.85;6.35;;;25.20;99.90;;;;;;5055152;28;20094;-76
2022/06/30 09:14:47;;;;;;;9.48;6.22;;;25.40;99.90;;;;;;5068634;28;20040;-76
2022/06/30 09:17:19;;;;;;;8.48;6.43;;;25.50;99.90;;;;;;5086349;28;20400;-76
2022/06/30 09:19:57;;;;;;;11.57;5.93;;;25.60;99.90;;;;;;5051039;28;20048;-76
2022/06/30 09:22:34;;;;;;;7.90;6.05;;;25.70;99.90;;;;;;5059457;28;20052;-77
2022/06/30 09:25:09;;;;;;;10.43;6.88;;;25.80;99.90;;;;;;5036909;28;20150;-77
2022/06/30 09:27:36;;;;;;;12.55;6.60;;;25.80;99.90;;;;;;5084078;28;20079;-75
2022/06/30 09:30:19;;;;;;;7.30;5.63;;;25.80;99.90;;;;;;5067084;28;20056;-76
2022/06/30 09:33:05;;;;;;;9.20;5.35;;;26.00;99.90;;;;;;5036159;28;20090;-76
2022/06/30 09:35:31;;;;;;;8.75;5.32;;;26.20;99.90;;;;;;5052365;28;20044;-76
2022/06/30 09:38:02;;;;;;;11.48;7.68;;;26.40;99.90;;;;;;5072562;28;20500;-75
2022/06/30 09:41:04;;;;;;;13.23;6.97;;;26.60;99.90;;;;;;5073387;28;20032;-75
2022/06/30 09:43:36;;;;;;;9.88;6.90;;;26.70;99.90;;;;;;5071690;28;20044;-76
2022/06/30 09:46:02;;;;;;;11.60;7.07;;;26.80;99.90;;;;;;5089602;28;20210;-76
2022/06/30 09:48:31;;;;;;;12.05;8.38;;;26.80;99.90;;;;;;5072875;28;20043;-76
2022/06/30 09:50:59;;;;;;;11.35;7.57;;;27.00;99.90;;;;;;5079468;28;20048;-75
2022/06/30 09:53:24;;;;;;;7.78;6.72;;;27.20;99.90;;;;;;5070749;28;20040;-74
2022/06/30 09:55:50;;;;;;;11.23;6.20;;;27.30;99.90;;;;;;5071116;28;20508;-70
2022/06/30 09:58:38;;;;;;;9.38;7.32;;;27.50;99.90;;;;;;5035673;28;20120;-70
2022/06/30 10:01:04;;;;;;;9.18;7.45;;;27.80;99.90;;;;;;5071224;28;20098;-70
2022/06/30 10:03:30;;;;;;;8.32;7.40;;;28.00;99.90;;;;;;5072259;28;20048;-70
2022/06/30 10:06:10;;;;;;;10.10;6.50;;;28.30;99.90;;;;;;5069878;28;20068;-71
2022/06/30 10:08:36;;;;;;;10.93;7.03;;;28.80;99.90;;;;;;5069475;28;20052;-70
2022/06/30 10:11:02;;;;;;;8.15;6.70;;;29.60;99.90;;;;;;5068279;28;20044;-70
2022/06/30 10:13:29;;;;;;;10.13;6.88;;;30.90;99.90;;;;;;5070160;28;20072;-70
2022/06/30 10:15:56;;;;;;;10.35;7.68;;;32.70;98.70;;;;;;5069785;28;20046;-71
2022/06/30 10:18:27;;;;;;;11.85;6.35;;;34.50;95.90;;;;;;5084194;28;20051;-70
2022/06/30 10:20:54;;;;;;;10.20;7.20;;;36.60;94.00;;;;;;5068570;28;20121;-70
2022/06/30 10:23:21;;;;;;;7.53;6.22;;;37.90;91.90;;;;;;5068441;28;20461;-71
2022/06/30 10:25:51;;;;;;;10.55;6.80;;;40.00;90.50;;;;;;5068396;28;20055;-71
2022/06/30 10:28:22;;;;;;;10.05;6.70;;;40.60;87.10;;;;;;5068530;28;20060;-71
2022/06/30 10:31:00;;;;;;;14.05;6.00;;;41.50;84.10;;;;;;5066716;28;20079;-70
2022/06/30 10:33:46;;;;;;;8.02;6.35;;;43.00;82.20;;;;;;5050152;28;20135;-71
2022/06/30 10:36:21;;;;;;;8.40;5.30;;;44.30;79.70;;;;;;5048526;28;20052;-71
2022/06/30 10:39:07;;;;;;;5.90;4.63;;;45.40;77.80;;;;;;5033073;28;20131;-71
2022/06/30 10:41:47;;;;;;;8.20;6.25;;;46.30;74.20;;;;;;5062244;28;20079;-71
2022/06/30 10:44:14;;;;;;;7.22;5.60;;;45.10;72.30;;;;;;5066099;28;20048;-72
2022/06/30 10:46:51;;;;;;;6.53;5.28;;;46.20;72.30;;;;;;5067219;28;20044;-71
2022/06/30 10:49:17;;;;;;;6.43;4.00;;;47.00;70.40;;;;;;5068409;28;20092;-72
2022/06/30 10:51:44;;;;;;;10.48;5.95;;;47.20;69.50;;;;;;5066703;28;20041;-73
2022/06/30 10:54:10;;;;;;;6.82;4.28;;;44.70;67.60;;;;;;5068181;28;20452;-72
2022/06/30 10:56:54;;;;;;;6.18;4.60;;;44.70;68.50;;;;;;5067232;28;20056;-71
2022/06/30 10:59:30;;;;;;;7.72;5.35;;;43.60;67.40;;;;;;5064786;28;20040;-71
2022/06/30 11:02:10;;;;;;;6.82;5.53;;;41.90;68.50;;;;;;5067827;28;20041;-71
2022/06/30 11:04:41;;;;;;;6.25;5.15;;;40.20;69.40;;;;;;5067029;28;20045;-71
2022/06/30 11:07:10;;;;;;;8.30;5.55;;;38.60;71.20;;;;;;5067533;28;20112;-71
2022/06/30 11:09:47;;;;;;;8.15;5.80;;;37.40;72.20;;;;;;5048982;28;20562;-71
2022/06/30 11:12:37;;;;;;;7.32;5.30;;;36.40;73.10;;;;;;5081134;28;20047;-70
2022/06/30 11:15:03;;;;;;;8.50;5.20;;;35.40;73.60;;;;;;5057733;28;20055;-71
2022/06/30 11:17:31;;;;;;;7.40;5.68;;;34.60;74.50;;;;;;5067333;28;20501;-70
2022/06/30 11:20:05;;;;;;;8.32;6.03;;;33.90;75.60;;;;;;5067604;28;20169;-71
2022/06/30 11:22:32;;;;;;;9.63;5.30;;;33.20;77.40;;;;;;5064877;28;20048;-71
2022/06/30 11:25:01;;;;;;;8.30;6.35;;;32.00;79.00;;;;;;5067259;28;20504;-71
2022/06/30 11:27:28;;;;;;;9.55;6.72;;;31.50;80.40;;;;;;5063635;28;20115;-71
2022/06/30 11:30:09;;;;;;;9.10;6.60;;;30.90;82.40;;;;;;5069229;28;20048;-70
2022/06/30 11:32:36;;;;;;;11.80;6.30;;;30.60;83.80;;;;;;5064087;28;20376;-71
2022/06/30 11:35:02;;;;;;;10.00;7.50;;;30.20;85.20;;;;;;5066076;28;20526;-71
2022/06/30 11:37:30;;;;;;;11.00;7.40;;;30.00;88.00;;;;;;5065994;28;20055;-71
2022/06/30 11:40:01;;;;;;;21.02;9.88;;;29.80;90.60;;;;;;5083234;28;20076;-71
2022/06/30 11:42:27;;;;;;;17.45;10.15;;;29.80;96.40;;;;;;5067086;28;20400;-71
2022/06/30 11:44:53;;;;;;;18.42;9.05;;;30.60;99.90;;;;;;5050775;28;20127;-73
2022/06/30 11:47:20;;;;;;;13.05;8.30;;;32.10;99.90;;;;;;5068103;28;20048;-73
2022/06/30 11:49:53;;;;;;;16.65;8.65;;;33.40;99.50;;;;;;5066682;28;20075;-74
2022/06/30 11:52:20;;;;;;;9.80;8.40;;;33.80;98.30;;;;;;5041400;28;20076;-74
2022/06/30 11:54:54;;;;;;;9.68;8.10;;;33.40;98.10;;;;;;5048018;28;20052;-70
2022/06/30 11:57:22;;;;;;;9.97;7.80;;;32.80;98.50;;;;;;5046044;28;20127;-72
2022/06/30 11:59:52;;;;;;;10.95;8.80;;;32.10;99.00;;;;;;5045829;28;20276;-71
2022/06/30 12:02:18;;;;;;;10.20;8.82;;;31.30;99.90;;;;;;5045600;28;20037;-69
2022/06/30 12:04:44;;;;;;;14.73;8.48;;;30.80;99.90;;;;;;5046775;28;20057;-69
2022/06/30 12:07:14;;;;;;;11.88;8.70;;;30.20;99.90;;;;;;5046507;28;20095;-69
2022/06/30 12:09:42;;;;;;;10.48;8.15;;;29.80;99.90;;;;;;5047223;28;20370;-70
2022/06/30 12:12:08;;;;;;;11.38;8.60;;;29.50;99.90;;;;;;5047121;28;20111;-70
2022/06/30 12:14:37;;;;;;;9.98;7.95;;;29.20;99.90;;;;;;5047526;28;20067;-70
2022/06/30 12:17:13;;;;;;;11.27;8.15;;;29.10;99.90;;;;;;5048188;28;20037;-69
2022/06/30 12:19:41;;;;;;;9.25;7.97;;;29.10;99.90;;;;;;5065392;28;20099;-70
2022/06/30 12:22:08;;;;;;;9.35;7.95;;;29.10;99.90;;;;;;5028876;28;20434;-70
2022/06/30 12:24:36;;;;;;;10.75;7.97;;;29.20;99.90;;;;;;5046866;28;20037;-70
2022/06/30 12:27:02;;;;;;;10.73;8.23;;;29.30;99.90;;;;;;5046825;28;20044;-70
2022/06/30 12:29:29;;;;;;;9.35;8.25;;;29.40;99.90;;;;;;5047317;28;20465;-71
2022/06/30 12:32:05;;;;;;;10.90;8.63;;;29.30;99.90;;;;;;5047108;28;20079;-71
2022/06/30 12:34:31;;;;;;;9.40;7.85;;;29.20;99.90;;;;;;5047477;28;20045;-71
2022/06/30 12:37:02;;;;;;;9.15;6.75;;;29.30;99.90;;;;;;5048120;28;20049;-71
2022/06/30 12:39:31;;;;;;;8.38;6.13;;;29.50;99.90;;;;;;5029012;28;20440;-71
2022/06/30 12:42:05;;;;;;;7.72;6.05;;;29.60;99.90;;;;;;5046687;28;20044;-71
2022/06/30 12:44:32;;;;;;;6.67;5.90;;;29.70;99.90;;;;;;5046775;28;20440;-71
2022/06/30 12:47:08;;;;;;;8.80;6.55;;;29.70;99.90;;;;;;5048817;28;20291;-71
2022/06/30 12:49:35;;;;;;;9.10;6.07;;;29.70;99.90;;;;;;5029208;28;20048;-71
2022/06/30 12:52:14;;;;;;;6.85;6.15;;;29.60;99.90;;;;;;5045290;28;20098;-72
2022/06/30 12:54:58;;;;;;;9.25;5.85;;;29.30;99.90;;;;;;5047226;28;20044;-72
2022/06/30 12:57:25;;;;;;;8.20;7.40;;;29.10;99.90;;;;;;5046479;28;20049;-71
2022/06/30 12:59:54;;;;;;;11.27;8.55;;;29.00;99.90;;;;;;5029172;28;20053;-72
2022/06/30 13:02:21;;;;;;;10.20;9.20;;;28.70;99.90;;;;;;5046823;28;20528;-71